createdAt,value
2023-02-27T00:00:22.049Z,1.81
2023-02-27T00:02:52.078Z,1.71
2023-02-27T00:05:20.231Z,1.69
2023-02-27T00:07:47.261Z,1.69
2023-02-27T00:10:15.169Z,1.62
2023-02-27T00:12:43.011Z,1.64
2023-02-27T00:15:13.628Z,1.63
2023-02-27T00:17:40.959Z,1.63
2023-02-27T00:20:12.265Z,1.68
2023-02-27T00:22:41.207Z,1.62
2023-02-27T00:25:09.448Z,1.61
2023-02-27T00:27:37.123Z,1.65
2023-02-27T00:30:10.329Z,1.61
2023-02-27T00:32:37.335Z,1.57
2023-02-27T00:35:10.300Z,1.57
2023-02-27T00:37:37.664Z,1.44
2023-02-27T00:40:05.801Z,1.37
2023-02-27T00:42:33.220Z,1.31
2023-02-27T00:45:00.385Z,1.34
2023-02-27T00:47:27.364Z,1.34
2023-02-27T00:49:54.366Z,1.31
2023-02-27T00:52:21.400Z,1.31
2023-02-27T00:54:48.373Z,1.30
2023-02-27T00:57:15.529Z,1.28
2023-02-27T00:59:42.782Z,1.24
2023-02-27T01:02:10.249Z,1.20
2023-02-27T01:04:37.424Z,1.21
2023-02-27T01:07:04.581Z,1.14
2023-02-27T01:09:31.677Z,1.14
2023-02-27T01:11:58.762Z,1.23
2023-02-27T01:14:26.408Z,1.22
2023-02-27T01:16:53.413Z,1.27
2023-02-27T01:19:20.563Z,1.17
2023-02-27T01:21:47.523Z,1.15
2023-02-27T01:24:15.889Z,1.03
2023-02-27T01:26:42.865Z,0.98
2023-02-27T01:29:10.082Z,0.93
2023-02-27T01:31:37.150Z,0.96
2023-02-27T01:34:04.113Z,0.94
2023-02-27T01:36:31.169Z,0.90
2023-02-27T01:38:58.109Z,0.91
2023-02-27T01:41:25.326Z,0.89
2023-02-27T01:44:02.480Z,0.93
2023-02-27T01:46:31.428Z,0.89
2023-02-27T01:49:24.112Z,0.90
2023-02-27T01:52:12.099Z,0.96
2023-02-27T01:54:42.291Z,0.98
2023-02-27T01:57:09.863Z,0.90
2023-02-27T01:59:40.734Z,0.93
2023-02-27T02:02:20.591Z,0.82
2023-02-27T02:04:48.283Z,0.80
2023-02-27T02:07:19.704Z,0.77
2023-02-27T02:09:53.967Z,0.74
2023-02-27T02:12:26.820Z,0.76
2023-02-27T02:14:53.809Z,0.83
2023-02-27T02:18:03.827Z,0.90
2023-02-27T02:20:33.796Z,0.96
2023-02-27T02:23:56.843Z,0.84
2023-02-27T02:27:25.133Z,0.78
2023-02-27T02:30:22.661Z,0.81
2023-02-27T02:33:23.282Z,0.78
2023-02-27T02:36:15.038Z,0.87
2023-02-27T02:39:06.465Z,0.80
2023-02-27T02:42:19.826Z,0.84
2023-02-27T02:45:30.942Z,0.86
2023-02-27T02:48:20.277Z,0.78
2023-02-27T02:51:14.710Z,0.81
2023-02-27T02:54:01.409Z,0.77
2023-02-27T02:57:21.849Z,0.69
2023-02-27T03:00:00.512Z,0.67
2023-02-27T03:02:39.266Z,0.69
2023-02-27T03:05:13.664Z,0.67
2023-02-27T03:07:53.955Z,0.64
2023-02-27T03:11:01.323Z,0.66
2023-02-27T03:13:44.659Z,0.53
2023-02-27T03:16:20.549Z,0.54
2023-02-27T03:19:10.899Z,0.53
2023-02-27T03:21:58.393Z,0.49
2023-02-27T03:24:45.229Z,0.46
2023-02-27T03:27:13.094Z,0.41
2023-02-27T03:29:55.728Z,0.41
2023-02-27T03:33:02.762Z,0.44
2023-02-27T03:35:57.666Z,0.39
2023-02-27T03:38:55.840Z,0.34
2023-02-27T03:41:52.345Z,0.32
2023-02-27T03:44:36.498Z,0.33
2023-02-27T03:47:03.792Z,0.37
2023-02-27T03:49:30.895Z,0.32
2023-02-27T03:51:58.054Z,0.35
2023-02-27T03:54:41.369Z,0.35
2023-02-27T03:57:08.762Z,0.36
2023-02-27T03:59:37.479Z,0.34
2023-02-27T04:02:05.227Z,0.35
2023-02-27T04:04:33.828Z,0.33
2023-02-27T04:07:53.835Z,0.37
2023-02-27T04:10:54.505Z,0.37
2023-02-27T04:13:26.803Z,0.36
2023-02-27T04:16:46.572Z,0.32
2023-02-27T04:20:08.583Z,0.22
2023-02-27T04:22:42.597Z,0.23
2023-02-27T04:26:09.639Z,0.16
2023-02-27T04:29:07.763Z,0.21
2023-02-27T04:32:04.654Z,0.19
2023-02-27T04:34:49.054Z,0.15
2023-02-27T04:37:44.767Z,0.11
2023-02-27T04:40:21.160Z,0.11
2023-02-27T04:42:56.985Z,0.05
2023-02-27T04:45:27.224Z,0.01
2023-02-27T04:48:05.898Z,0.13
2023-02-27T04:50:44.457Z,0.09
2023-02-27T04:54:04.144Z,0.07
2023-02-27T04:56:36.318Z,0.13
2023-02-27T04:59:19.886Z,0.11
2023-02-27T05:02:13.613Z,0.06
2023-02-27T05:04:45.288Z,0.10
2023-02-27T05:07:20.364Z,-0.05
2023-02-27T05:09:58.355Z,-0.04
2023-02-27T05:12:44.958Z,0.04
2023-02-27T05:15:20.725Z,0.10
2023-02-27T05:18:08.321Z,-0.01
2023-02-27T05:21:26.446Z,-0.07
2023-02-27T05:24:33.326Z,-0.08
2023-02-27T05:27:23.242Z,-0.09
2023-02-27T05:30:08.448Z,-0.06
2023-02-27T05:32:48.666Z,-0.08
2023-02-27T05:35:24.194Z,-0.12
2023-02-27T05:38:06.067Z,-0.15
2023-02-27T05:40:48.054Z,-0.14
2023-02-27T05:43:27.679Z,-0.11
2023-02-27T05:46:04.512Z,-0.10
2023-02-27T05:48:57.844Z,-0.12
2023-02-27T05:51:29.084Z,-0.14
2023-02-27T05:54:07.768Z,-0.11
2023-02-27T05:56:37.188Z,-0.09
2023-02-27T05:59:19.079Z,-0.02
2023-02-27T06:01:46.553Z,-0.01
2023-02-27T06:04:13.744Z,-0.04
2023-02-27T06:06:42.082Z,0.01
2023-02-27T06:09:09.927Z,-0.05
2023-02-27T06:11:36.912Z,-0.05
2023-02-27T06:14:03.880Z,-0.01
2023-02-27T06:16:31.114Z,0.00
2023-02-27T06:18:58.235Z,-0.07
2023-02-27T06:21:25.231Z,-0.17
2023-02-27T06:23:52.269Z,-0.13
2023-02-27T06:26:19.213Z,-0.09
2023-02-27T06:28:46.234Z,-0.07
2023-02-27T06:31:13.351Z,-0.14
2023-02-27T06:33:40.413Z,-0.22
2023-02-27T06:36:07.462Z,-0.23
2023-02-27T06:38:34.619Z,-0.22
2023-02-27T06:41:02.454Z,-0.24
2023-02-27T06:43:30.179Z,-0.23
2023-02-27T06:45:57.704Z,1.80
2023-02-27T06:48:24.710Z,4.77
2023-02-27T06:50:56.467Z,6.50
2023-02-27T06:53:24.674Z,7.51
2023-02-27T06:55:52.220Z,8.14
2023-02-27T06:58:19.433Z,8.56
2023-02-27T07:00:46.742Z,8.87
2023-02-27T07:03:14.849Z,9.12
2023-02-27T07:05:42.772Z,9.30
2023-02-27T07:08:10.895Z,9.46
2023-02-27T07:10:38.939Z,9.58
2023-02-27T07:13:05.968Z,9.69
2023-02-27T07:15:33.495Z,9.82
2023-02-27T07:18:00.493Z,9.94
2023-02-27T07:20:27.561Z,10.06
2023-02-27T07:22:54.580Z,10.15
2023-02-27T07:25:21.533Z,10.28
2023-02-27T07:27:50.764Z,10.38
2023-02-27T07:30:19.570Z,10.49
2023-02-27T07:32:47.300Z,10.55
2023-02-27T07:35:14.320Z,10.60
2023-02-27T07:37:41.314Z,10.66
2023-02-27T07:40:09.383Z,10.70
2023-02-27T07:42:36.472Z,10.80
2023-02-27T07:45:04.547Z,10.87
2023-02-27T07:47:31.815Z,10.92
2023-02-27T07:49:58.795Z,11.00
2023-02-27T07:52:25.943Z,11.06
2023-02-27T07:54:53.005Z,11.11
2023-02-27T07:57:19.987Z,11.17
2023-02-27T07:59:48.445Z,11.20
2023-02-27T08:02:15.748Z,11.25
2023-02-27T08:04:42.723Z,11.28
2023-02-27T08:07:09.698Z,11.32
2023-02-27T08:09:36.734Z,11.35
2023-02-27T08:12:03.788Z,11.38
2023-02-27T08:14:30.862Z,11.40
2023-02-27T08:16:57.793Z,11.45
2023-02-27T08:19:24.743Z,11.45
2023-02-27T08:21:51.745Z,11.50
2023-02-27T08:24:18.783Z,11.54
2023-02-27T08:26:45.810Z,11.53
2023-02-27T08:29:13.353Z,11.55
2023-02-27T08:31:41.188Z,11.57
2023-02-27T08:34:10.483Z,11.56
2023-02-27T08:36:38.435Z,11.60
2023-02-27T08:39:07.750Z,11.63
2023-02-27T08:41:35.561Z,11.67
2023-02-27T08:44:02.816Z,11.68
2023-02-27T08:46:30.250Z,11.69
2023-02-27T08:48:57.357Z,11.69
2023-02-27T08:51:24.399Z,11.71
2023-02-27T08:53:51.439Z,11.73
2023-02-27T08:56:18.396Z,11.73
2023-02-27T08:58:45.416Z,11.72
2023-02-27T09:01:12.436Z,11.73
2023-02-27T09:03:39.404Z,11.75
2023-02-27T09:06:06.507Z,11.78
2023-02-27T09:08:33.740Z,11.79
2023-02-27T09:11:00.755Z,11.80
2023-02-27T09:13:28.556Z,11.82
2023-02-27T09:15:55.793Z,11.82
2023-02-27T09:18:23.285Z,11.81
2023-02-27T09:20:51.960Z,11.80
2023-02-27T09:23:19.557Z,11.80
2023-02-27T09:25:47.841Z,11.80
2023-02-27T09:28:15.840Z,11.82
2023-02-27T09:30:42.890Z,11.80
2023-02-27T09:33:09.993Z,11.82
2023-02-27T09:35:37.674Z,11.82
2023-02-27T09:38:04.730Z,11.83
2023-02-27T09:40:39.596Z,11.86
2023-02-27T09:43:32.821Z,11.86
2023-02-27T09:46:03.045Z,11.87
2023-02-27T09:48:42.770Z,11.84
2023-02-27T09:51:09.863Z,11.83
2023-02-27T09:53:52.363Z,11.82
2023-02-27T09:56:24.148Z,11.85
2023-02-27T09:59:03.058Z,11.83
2023-02-27T10:01:55.880Z,11.84
2023-02-27T10:04:34.791Z,11.88
2023-02-27T10:07:17.364Z,11.85
2023-02-27T10:10:25.687Z,11.88
2023-02-27T10:13:13.703Z,11.87
2023-02-27T10:15:51.650Z,11.85
2023-02-27T10:18:51.078Z,11.82
2023-02-27T10:21:25.113Z,11.85
2023-02-27T10:24:47.291Z,11.85
2023-02-27T10:27:19.649Z,11.86
2023-02-27T10:29:47.008Z,11.89
2023-02-27T10:32:30.778Z,11.92
2023-02-27T10:35:10.912Z,11.83
2023-02-27T10:37:46.266Z,11.83
2023-02-27T10:40:15.409Z,11.84
2023-02-27T10:42:43.310Z,11.87
2023-02-27T10:45:16.736Z,11.93
2023-02-27T10:47:44.604Z,11.92
2023-02-27T10:50:28.659Z,11.91
2023-02-27T10:53:03.975Z,11.94
2023-02-27T10:55:38.394Z,11.94
2023-02-27T10:58:05.904Z,12.00
2023-02-27T11:00:45.998Z,11.93
2023-02-27T11:03:28.838Z,11.94
2023-02-27T11:06:09.061Z,11.99
2023-02-27T11:08:36.613Z,11.98
2023-02-27T11:11:11.468Z,11.99
2023-02-27T11:13:45.481Z,12.02
2023-02-27T11:16:20.443Z,11.96
2023-02-27T11:18:50.678Z,11.92
2023-02-27T11:21:30.185Z,12.01
2023-02-27T11:24:08.622Z,12.02
2023-02-27T11:26:36.917Z,12.05
2023-02-27T11:29:18.409Z,11.95
2023-02-27T11:31:46.610Z,12.01
2023-02-27T11:34:36.691Z,12.03
2023-02-27T11:37:19.646Z,12.07
2023-02-27T11:40:02.907Z,12.08
2023-02-27T11:42:32.451Z,12.11
2023-02-27T11:46:04.640Z,12.15
2023-02-27T11:48:27.293Z,12.15
2023-02-27T11:51:34.285Z,12.15
2023-02-27T11:54:39.543Z,12.16
2023-02-27T11:57:39.899Z,12.13
2023-02-27T12:00:40.992Z,12.06
2023-02-27T12:03:26.468Z,12.04
2023-02-27T12:05:59.118Z,12.03
2023-02-27T12:08:49.208Z,11.94
2023-02-27T12:12:00.286Z,12.02
2023-02-27T12:15:10.174Z,12.07
2023-02-27T12:17:53.203Z,11.97
2023-02-27T12:20:37.077Z,11.96
2023-02-27T12:23:27.629Z,12.04
2023-02-27T12:26:12.882Z,11.98
2023-02-27T12:29:04.882Z,12.01
2023-02-27T12:32:07.725Z,11.99
2023-02-27T12:34:48.271Z,11.98
2023-02-27T12:37:29.309Z,12.00
2023-02-27T12:40:00.164Z,12.07
2023-02-27T12:42:43.096Z,12.09
2023-02-27T12:45:15.987Z,12.05
2023-02-27T12:48:29.210Z,12.12
2023-02-27T12:51:35.299Z,12.13
2023-02-27T12:54:35.368Z,12.15
2023-02-27T12:57:13.625Z,12.20
2023-02-27T13:00:12.788Z,12.17
2023-02-27T13:02:50.412Z,12.06
2023-02-27T13:05:41.362Z,12.02
2023-02-27T13:08:15.159Z,12.07
2023-02-27T13:11:06.635Z,12.15
2023-02-27T13:13:56.733Z,12.17
2023-02-27T13:16:46.417Z,12.19
2023-02-27T13:19:26.618Z,12.12
2023-02-27T13:22:29.878Z,12.16
2023-02-27T13:25:01.965Z,12.18
2023-02-27T13:27:42.573Z,12.19
2023-02-27T13:30:21.589Z,12.20
2023-02-27T13:33:15.373Z,12.14
2023-02-27T13:36:05.918Z,12.17
2023-02-27T13:38:51.918Z,12.10
2023-02-27T13:41:39.689Z,12.18
2023-02-27T13:44:22.064Z,12.17
2023-02-27T13:46:49.183Z,12.14
2023-02-27T13:49:28.782Z,12.11
2023-02-27T13:51:59.519Z,12.13
2023-02-27T13:54:33.418Z,12.11
2023-02-27T13:57:19.568Z,12.08
2023-02-27T14:00:00.770Z,12.02
2023-02-27T14:02:57.969Z,12.01
2023-02-27T14:05:38.834Z,12.09
2023-02-27T14:08:20.449Z,12.18
2023-02-27T14:11:10.598Z,12.24
2023-02-27T14:13:49.910Z,12.19
2023-02-27T14:16:38.297Z,12.16
2023-02-27T14:19:17.891Z,12.15
2023-02-27T14:22:11.933Z,12.13
2023-02-27T14:25:03.673Z,12.17
2023-02-27T14:27:46.817Z,12.16
2023-02-27T14:30:41.063Z,12.21
2023-02-27T14:33:50.651Z,12.24
2023-02-27T14:36:27.438Z,12.24
2023-02-27T14:39:00.841Z,12.26
2023-02-27T14:41:49.510Z,12.23
2023-02-27T14:44:21.941Z,12.27
2023-02-27T14:46:52.385Z,12.19
2023-02-27T14:49:25.156Z,12.17
2023-02-27T14:51:53.168Z,12.21
2023-02-27T14:54:27.466Z,12.22
2023-02-27T14:57:00.406Z,12.22
2023-02-27T14:59:50.560Z,12.19
2023-02-27T15:02:31.107Z,12.28
2023-02-27T15:05:01.028Z,12.28
2023-02-27T15:07:32.751Z,12.24
2023-02-27T15:10:04.861Z,12.23
2023-02-27T15:12:39.567Z,12.26
2023-02-27T15:15:09.774Z,12.23
2023-02-27T15:17:41.664Z,12.19
2023-02-27T15:20:24.270Z,12.21
2023-02-27T15:22:51.384Z,12.19
2023-02-27T15:25:35.562Z,12.19
2023-02-27T15:28:15.473Z,12.26
2023-02-27T15:30:47.354Z,12.23
2023-02-27T15:33:17.014Z,12.24
2023-02-27T15:35:46.001Z,12.23
2023-02-27T15:38:38.078Z,12.23
2023-02-27T15:41:05.620Z,12.20
2023-02-27T15:43:33.310Z,12.13
2023-02-27T15:46:00.539Z,12.16
2023-02-27T15:48:29.466Z,12.15
2023-02-27T15:51:02.630Z,12.19
2023-02-27T15:53:34.295Z,12.20
2023-02-27T15:56:06.244Z,12.23
2023-02-27T15:58:44.207Z,12.27
2023-02-27T16:01:21.300Z,8.73
2023-02-27T16:03:54.507Z,7.98
2023-02-27T16:06:34.193Z,7.89
2023-02-27T16:09:30.233Z,7.79
2023-02-27T16:12:34.712Z,7.71
2023-02-27T16:15:23.311Z,7.67
2023-02-27T16:18:09.595Z,7.69
2023-02-27T16:20:54.846Z,7.64
2023-02-27T16:23:31.884Z,7.61
2023-02-27T16:26:32.932Z,7.54
2023-02-27T16:29:13.218Z,7.54
2023-02-27T16:31:49.272Z,7.65
2023-02-27T16:34:45.603Z,7.64
2023-02-27T16:37:36.948Z,7.57
2023-02-27T16:40:15.342Z,7.47
2023-02-27T16:42:43.848Z,7.34
2023-02-27T16:45:17.744Z,7.44
2023-02-27T16:47:47.847Z,7.27
2023-02-27T16:50:20.248Z,7.25
2023-02-27T16:52:47.367Z,7.23
2023-02-27T16:55:14.402Z,7.20
2023-02-27T16:57:41.443Z,7.20
2023-02-27T17:00:12.945Z,7.14
2023-02-27T17:02:40.014Z,7.03
2023-02-27T17:05:08.249Z,6.99
2023-02-27T17:07:35.542Z,6.95
2023-02-27T17:10:03.416Z,6.89
2023-02-27T17:12:30.354Z,6.77
2023-02-27T17:14:57.602Z,6.77
2023-02-27T17:17:24.711Z,6.63
2023-02-27T17:19:51.733Z,6.75
2023-02-27T17:22:18.960Z,6.62
2023-02-27T17:24:46.071Z,6.64
2023-02-27T17:27:13.150Z,6.56
2023-02-27T17:29:40.232Z,6.52
2023-02-27T17:32:07.335Z,6.45
2023-02-27T17:34:34.418Z,6.38
2023-02-27T17:37:01.533Z,6.38
2023-02-27T17:39:28.713Z,6.35
2023-02-27T17:41:55.851Z,6.33
2023-02-27T17:44:23.583Z,6.27
2023-02-27T17:46:50.598Z,6.21
2023-02-27T17:49:17.616Z,6.15
2023-02-27T17:51:44.732Z,6.08
2023-02-27T17:54:11.876Z,6.05
2023-02-27T17:56:38.929Z,6.00
2023-02-27T17:59:07.693Z,5.97
2023-02-27T18:01:34.847Z,5.88
2023-02-27T18:04:01.949Z,5.79
2023-02-27T18:06:29.237Z,5.65
2023-02-27T18:08:56.419Z,5.64
2023-02-27T18:11:23.587Z,5.50
2023-02-27T18:13:50.787Z,5.46
2023-02-27T18:16:18.559Z,5.45
2023-02-27T18:18:46.765Z,5.34
2023-02-27T18:21:21.374Z,5.33
2023-02-27T18:23:50.008Z,5.19
2023-02-27T18:26:29.823Z,5.18
2023-02-27T18:29:07.417Z,5.04
2023-02-27T18:31:42.807Z,4.98
2023-02-27T18:34:11.238Z,4.95
2023-02-27T18:36:38.748Z,4.92
2023-02-27T18:39:06.874Z,4.74
2023-02-27T18:41:34.732Z,4.72
2023-02-27T18:44:01.970Z,4.71
2023-02-27T18:46:29.558Z,4.71
2023-02-27T18:48:56.772Z,4.63
2023-02-27T18:51:23.970Z,4.69
2023-02-27T18:53:51.735Z,4.68
2023-02-27T18:56:22.930Z,4.67
2023-02-27T18:58:51.470Z,4.58
2023-02-27T19:01:23.437Z,4.57
2023-02-27T19:03:50.841Z,4.51
2023-02-27T19:06:18.150Z,4.47
2023-02-27T19:08:46.276Z,4.42
2023-02-27T19:11:26.250Z,4.37
2023-02-27T19:13:53.340Z,4.33
2023-02-27T19:16:20.406Z,4.28
2023-02-27T19:18:47.431Z,4.23
2023-02-27T19:21:14.561Z,4.19
2023-02-27T19:23:41.553Z,4.08
2023-02-27T19:26:09.090Z,4.05
2023-02-27T19:28:36.522Z,3.98
2023-02-27T19:31:13.707Z,4.01
2023-02-27T19:33:40.866Z,3.96
2023-02-27T19:36:12.274Z,3.88
2023-02-27T19:38:40.159Z,3.80
2023-02-27T19:41:12.328Z,3.75
2023-02-27T19:43:41.521Z,3.78
2023-02-27T19:46:18.572Z,3.76
2023-02-27T19:48:46.366Z,3.66
2023-02-27T19:51:15.738Z,3.63
2023-02-27T19:53:54.206Z,3.56
2023-02-27T19:56:24.766Z,3.66
2023-02-27T19:58:52.911Z,3.58
2023-02-27T20:01:26.855Z,3.52
2023-02-27T20:03:55.940Z,3.44
2023-02-27T20:06:25.348Z,3.39
2023-02-27T20:08:53.178Z,3.37
2023-02-27T20:11:21.759Z,3.34
2023-02-27T20:13:50.423Z,3.34
2023-02-27T20:16:22.171Z,3.30
2023-02-27T20:18:50.132Z,3.27
2023-02-27T20:21:21.918Z,3.28
2023-02-27T20:23:51.654Z,3.25
2023-02-27T20:26:29.951Z,3.22
2023-02-27T20:29:02.528Z,3.23
2023-02-27T20:31:32.400Z,3.27
2023-02-27T20:34:01.257Z,3.25
2023-02-27T20:36:29.091Z,3.26
2023-02-27T20:38:56.186Z,3.17
2023-02-27T20:41:28.242Z,3.16
2023-02-27T20:43:56.593Z,3.12
2023-02-27T20:46:28.003Z,3.03
2023-02-27T20:49:00.583Z,2.98
2023-02-27T20:51:31.466Z,3.04
2023-02-27T20:53:59.801Z,3.08
2023-02-27T20:56:34.264Z,3.00
2023-02-27T20:59:05.363Z,2.96
2023-02-27T21:01:33.250Z,2.97
2023-02-27T21:04:01.732Z,2.93
2023-02-27T21:06:30.465Z,2.99
2023-02-27T21:08:57.789Z,3.02
2023-02-27T21:11:31.248Z,2.96
2023-02-27T21:14:03.084Z,2.97
2023-02-27T21:16:30.195Z,2.90
2023-02-27T21:18:57.583Z,2.88
2023-02-27T21:21:29.278Z,2.85
2023-02-27T21:23:56.980Z,2.81
2023-02-27T21:26:26.428Z,2.81
2023-02-27T21:29:03.344Z,2.76
2023-02-27T21:31:33.645Z,2.75
2023-02-27T21:34:04.603Z,2.81
2023-02-27T21:36:42.251Z,2.83
2023-02-27T21:39:36.987Z,2.89
2023-02-27T21:42:04.238Z,2.86
2023-02-27T21:44:32.088Z,2.90
2023-02-27T21:46:59.114Z,2.84
2023-02-27T21:49:29.528Z,2.82
2023-02-27T21:51:57.254Z,2.76
2023-02-27T21:54:24.898Z,2.79
2023-02-27T21:56:52.175Z,2.80
2023-02-27T21:59:20.891Z,2.84
2023-02-27T22:01:48.722Z,2.83
2023-02-27T22:04:19.087Z,2.77
2023-02-27T22:06:47.467Z,2.75
2023-02-27T22:09:14.772Z,2.76
2023-02-27T22:11:42.338Z,2.77
2023-02-27T22:14:10.976Z,2.70
2023-02-27T22:16:38.289Z,2.78
2023-02-27T22:19:21.934Z,2.77
2023-02-27T22:21:49.466Z,2.84
2023-02-27T22:24:16.673Z,2.75
2023-02-27T22:26:44.586Z,2.72
2023-02-27T22:29:11.727Z,2.74
2023-02-27T22:31:39.348Z,2.74
2023-02-27T22:34:15.144Z,2.66
2023-02-27T22:36:42.210Z,2.61
2023-02-27T22:39:10.509Z,2.60
2023-02-27T22:41:40.713Z,2.58
2023-02-27T22:44:09.596Z,2.62
2023-02-27T22:46:40.766Z,2.63
2023-02-27T22:49:14.091Z,2.64
2023-02-27T22:51:41.664Z,2.58
2023-02-27T22:54:10.194Z,2.55
2023-02-27T22:56:37.364Z,2.54
2023-02-27T22:59:05.906Z,2.56
2023-02-27T23:01:36.289Z,2.55
2023-02-27T23:04:08.686Z,2.41
2023-02-27T23:06:39.052Z,2.35
2023-02-27T23:09:10.882Z,2.35
2023-02-27T23:11:38.018Z,2.35
2023-02-27T23:14:05.253Z,2.38
2023-02-27T23:16:32.551Z,2.41
2023-02-27T23:19:00.663Z,2.38
2023-02-27T23:21:34.896Z,2.35
2023-02-27T23:24:17.259Z,2.36
2023-02-27T23:26:51.007Z,2.36
2023-02-27T23:29:18.571Z,2.35
2023-02-27T23:31:45.726Z,2.32
2023-02-27T23:34:13.151Z,2.27
2023-02-27T23:36:40.748Z,2.27
2023-02-27T23:39:09.005Z,2.28
2023-02-27T23:41:36.324Z,2.29
2023-02-27T23:44:03.764Z,2.27
2023-02-27T23:46:31.342Z,2.14
2023-02-27T23:49:01.889Z,2.04
2023-02-27T23:51:30.799Z,2.04
2023-02-27T23:53:58.920Z,2.02
2023-02-27T23:56:29.532Z,1.98
2023-02-27T23:59:03.677Z,1.90
